Time;durP1;ratioP1;P1;durP2;ratioP2;P2;SDS_P1;SDS_P2;PMS_P1;PMS_P2;Temp;Humidity;BMP_temperature;BMP_pressure;BME280_temperature;BME280_humidity;BME280_pressure;Samples;Min_cycle;Max_cycle;Signal;HPM_P1;HPM_P2
2020/12/28 00:00:55;;;;;;;0.50;0.43;;;10.60;95.30;;;;;;6275223;22;20000;-70
2020/12/28 00:03:22;;;;;;;2.25;0.50;;;10.60;95.80;;;;;;6278894;22;20012;-71
2020/12/28 00:05:49;;;;;;;4.10;1.33;;;10.60;96.00;;;;;;6277122;22;19992;-69
2020/12/28 00:08:16;;;;;;;1.98;0.60;;;10.40;96.40;;;;;;6278131;22;19996;-69
2020/12/28 00:10:42;;;;;;;1.42;0.60;;;10.30;96.70;;;;;;6274462;22;20007;-70
2020/12/28 00:13:09;;;;;;;1.55;0.60;;;10.40;96.90;;;;;;6274771;22;20469;-71
2020/12/28 00:15:36;;;;;;;3.75;1.38;;;10.50;96.90;;;;;;6276176;22;20000;-70
2020/12/28 00:18:03;;;;;;;5.55;0.70;;;10.40;97.10;;;;;;6279613;22;20015;-71
2020/12/28 00:20:31;;;;;;;1.08;0.43;;;10.40;97.40;;;;;;6276920;22;20002;-69
2020/12/28 00:22:59;;;;;;;1.02;0.60;;;10.20;97.70;;;;;;6275817;22;20008;-70
2020/12/28 00:25:26;;;;;;;4.35;0.73;;;10.10;98.00;;;;;;6277779;22;20019;-69
2020/12/28 00:27:55;;;;;;;1.35;0.60;;;10.00;98.40;;;;;;6277448;22;20322;-70
2020/12/28 00:30:22;;;;;;;2.53;0.93;;;9.90;98.80;;;;;;6247801;22;20361;-72
2020/12/28 00:32:49;;;;;;;2.70;0.60;;;9.80;98.90;;;;;;6274134;22;20004;-71
2020/12/28 00:35:16;;;;;;;4.88;0.60;;;9.70;99.60;;;;;;6274621;22;20019;-69
2020/12/28 00:37:43;;;;;;;1.92;0.70;;;9.70;99.90;;;;;;6274114;22;20011;-70
2020/12/28 00:40:11;;;;;;;1.77;0.60;;;9.60;99.90;;;;;;6274568;22;20425;-70
2020/12/28 00:42:38;;;;;;;1.50;0.60;;;9.50;99.90;;;;;;6276729;22;20559;-70
2020/12/28 00:45:09;;;;;;;1.13;0.80;;;9.50;99.90;;;;;;6275859;22;19999;-71
2020/12/28 00:47:37;;;;;;;0.70;0.60;;;9.40;99.90;;;;;;6274607;22;20004;-70
2020/12/28 00:50:05;;;;;;;1.70;0.60;;;9.30;99.90;;;;;;6274061;22;19999;-69
2020/12/28 00:52:32;;;;;;;2.00;0.57;;;9.30;99.90;;;;;;6247411;22;19996;-69
2020/12/28 00:54:59;;;;;;;1.48;0.60;;;9.20;99.90;;;;;;6275686;22;20000;-70
2020/12/28 00:57:26;;;;;;;1.63;0.60;;;9.20;99.90;;;;;;6274167;22;20337;-69
2020/12/28 00:59:53;;;;;;;0.60;0.40;;;9.10;99.90;;;;;;6276031;22;19999;-69
2020/12/28 01:02:20;;;;;;;1.88;0.98;;;9.10;99.90;;;;;;6276575;22;20003;-71
2020/12/28 01:04:47;;;;;;;3.55;1.33;;;9.10;99.90;;;;;;6277556;22;20003;-70
2020/12/28 01:07:17;;;;;;;1.50;0.80;;;9.00;99.90;;;;;;6273665;22;20322;-70
2020/12/28 01:09:43;;;;;;;1.40;0.75;;;9.00;99.90;;;;;;6273391;22;20004;-71
2020/12/28 01:12:10;;;;;;;2.60;0.80;;;8.90;99.90;;;;;;6273847;22;20004;-70
2020/12/28 01:14:37;;;;;;;2.88;0.73;;;8.90;99.90;;;;;;6274788;22;20004;-70
2020/12/28 01:17:04;;;;;;;2.70;0.82;;;8.80;99.90;;;;;;6247061;22;20000;-71
2020/12/28 01:19:31;;;;;;;2.00;0.95;;;8.70;99.90;;;;;;6275855;22;20004;-71
2020/12/28 01:21:58;;;;;;;1.80;0.77;;;8.70;99.90;;;;;;6274422;22;20000;-70
2020/12/28 01:24:25;;;;;;;2.78;0.70;;;8.60;99.90;;;;;;6275104;22;20002;-70
2020/12/28 01:26:51;;;;;;;2.72;0.88;;;8.60;99.90;;;;;;6277371;22;19992;-70
2020/12/28 01:29:18;;;;;;;1.00;0.60;;;8.60;99.90;;;;;;6273566;22;20003;-70
2020/12/28 01:31:45;;;;;;;2.13;0.70;;;8.60;99.90;;;;;;6276574;22;20373;-71
2020/12/28 01:34:12;;;;;;;4.30;0.80;;;8.60;99.90;;;;;;6274076;22;20007;-73
2020/12/28 01:36:39;;;;;;;1.60;0.75;;;8.50;99.90;;;;;;6274353;22;20000;-71
2020/12/28 01:39:06;;;;;;;2.13;1.10;;;8.50;99.90;;;;;;6275726;22;20437;-73
2020/12/28 01:41:33;;;;;;;2.33;0.70;;;8.50;99.90;;;;;;6278808;22;19998;-74
2020/12/28 01:44:00;;;;;;;1.13;0.70;;;8.40;99.90;;;;;;6248494;22;20004;-72
2020/12/28 01:46:29;;;;;;;1.10;0.70;;;8.50;99.90;;;;;;6273743;22;19995;-71
2020/12/28 01:48:56;;;;;;;2.03;0.77;;;8.40;99.90;;;;;;6275569;22;20004;-72
2020/12/28 01:51:24;;;;;;;1.35;0.80;;;8.40;99.90;;;;;;6275138;22;20055;-70
2020/12/28 01:53:52;;;;;;;1.55;0.70;;;8.40;99.90;;;;;;6273188;22;20004;-72
2020/12/28 01:56:23;;;;;;;1.85;0.93;;;8.40;99.90;;;;;;6277385;22;19992;-74
2020/12/28 01:58:50;;;;;;;2.42;0.98;;;8.40;99.90;;;;;;6274684;22;20027;-72
2020/12/28 02:01:19;;;;;;;2.58;0.80;;;8.30;99.90;;;;;;6275406;22;20390;-71
2020/12/28 02:03:46;;;;;;;2.65;0.80;;;8.30;99.90;;;;;;6276674;22;20000;-71
2020/12/28 02:06:14;;;;;;;4.18;1.05;;;8.30;99.90;;;;;;6274219;22;20725;-70
2020/12/28 02:08:42;;;;;;;1.40;0.90;;;8.30;99.90;;;;;;6275693;22;20314;-70
2020/12/28 02:11:09;;;;;;;1.13;0.82;;;8.20;99.90;;;;;;6274778;22;19995;-70
2020/12/28 02:13:36;;;;;;;2.53;1.13;;;8.20;99.90;;;;;;6276774;22;20006;-70
2020/12/28 02:16:03;;;;;;;2.80;0.95;;;8.20;99.90;;;;;;6277578;22;20006;-72
2020/12/28 02:18:30;;;;;;;1.80;1.10;;;8.20;99.90;;;;;;6277195;22;20012;-71
2020/12/28 02:20:56;;;;;;;1.10;0.90;;;8.20;99.90;;;;;;6275510;22;20002;-70
2020/12/28 02:23:23;;;;;;;1.38;0.98;;;8.20;99.90;;;;;;6275691;22;20023;-69
2020/12/28 02:25:50;;;;;;;2.97;1.25;;;8.30;99.90;;;;;;6273746;22;20011;-71
2020/12/28 02:28:17;;;;;;;2.72;1.25;;;8.40;99.90;;;;;;6274198;22;20000;-71
2020/12/28 02:30:44;;;;;;;4.72;1.50;;;8.40;99.90;;;;;;6273608;22;20003;-70
2020/12/28 02:33:11;;;;;;;3.13;1.30;;;8.40;99.90;;;;;;6277177;22;20317;-70
2020/12/28 02:35:40;;;;;;;2.28;1.30;;;8.40;99.90;;;;;;6276699;22;20019;-71
2020/12/28 02:38:06;;;;;;;5.70;1.77;;;8.40;99.90;;;;;;6247178;22;20428;-70
2020/12/28 02:40:33;;;;;;;2.72;1.40;;;8.40;99.90;;;;;;6274503;22;19996;-70
2020/12/28 02:43:00;;;;;;;3.85;1.58;;;8.40;99.90;;;;;;6273664;22;20000;-71
2020/12/28 02:45:27;;;;;;;5.95;1.70;;;8.40;99.90;;;;;;6275292;22;20313;-72
2020/12/28 02:47:54;;;;;;;2.08;1.30;;;8.40;99.90;;;;;;6274850;22;20003;-72
2020/12/28 02:50:21;;;;;;;1.85;1.17;;;8.40;99.90;;;;;;6273168;22;20004;-70
2020/12/28 02:52:47;;;;;;;3.92;2.00;;;8.40;99.90;;;;;;6276787;22;20099;-70
2020/12/28 02:55:14;;;;;;;3.13;1.67;;;8.30;99.90;;;;;;6276110;22;20019;-73
2020/12/28 02:57:41;;;;;;;3.75;1.63;;;8.20;99.90;;;;;;6276291;22;20055;-71
2020/12/28 03:00:08;;;;;;;2.80;1.70;;;8.20;99.90;;;;;;6275248;22;20321;-70
2020/12/28 03:02:35;;;;;;;2.28;1.42;;;8.10;99.90;;;;;;6272986;22;20180;-70
2020/12/28 03:05:02;;;;;;;3.20;1.90;;;8.10;99.90;;;;;;6273658;22;20007;-70
2020/12/28 03:07:29;;;;;;;4.35;1.60;;;8.00;99.90;;;;;;6276269;22;20322;-70
2020/12/28 03:09:56;;;;;;;3.22;1.80;;;8.00;99.90;;;;;;6248419;22;20010;-72
2020/12/28 03:12:24;;;;;;;4.20;2.30;;;7.90;99.90;;;;;;6273599;22;20000;-70
2020/12/28 03:14:51;;;;;;;3.08;1.77;;;7.90;99.90;;;;;;6275738;22;19995;-70
2020/12/28 03:17:18;;;;;;;4.38;2.00;;;7.90;99.90;;;;;;6274223;22;20009;-70
2020/12/28 03:19:45;;;;;;;4.80;2.30;;;7.90;99.90;;;;;;6249984;22;20413;-71
2020/12/28 03:22:13;;;;;;;3.65;1.98;;;7.90;99.90;;;;;;6276906;22;20440;-70
2020/12/28 03:24:39;;;;;;;2.58;1.50;;;7.90;99.90;;;;;;6278113;22;20004;-70
2020/12/28 03:27:06;;;;;;;3.05;1.60;;;7.80;99.90;;;;;;6275770;22;20000;-70
2020/12/28 03:29:34;;;;;;;2.65;1.45;;;7.80;99.90;;;;;;6275566;22;19996;-70
2020/12/28 03:32:02;;;;;;;3.55;1.77;;;7.80;99.90;;;;;;6277590;22;19996;-70
2020/12/28 03:34:29;;;;;;;3.90;1.33;;;7.80;99.90;;;;;;6279905;22;19996;-71
2020/12/28 03:36:56;;;;;;;5.53;2.78;;;7.80;99.90;;;;;;6275550;22;20004;-70
2020/12/28 03:39:23;;;;;;;3.83;3.00;;;7.80;99.90;;;;;;6275217;22;20015;-71
2020/12/28 03:41:49;;;;;;;1.63;1.25;;;7.80;99.90;;;;;;6276000;22;20316;-71
2020/12/28 03:44:16;;;;;;;1.40;1.00;;;7.70;99.90;;;;;;6278848;22;20000;-71
2020/12/28 03:46:43;;;;;;;2.42;1.42;;;7.70;99.90;;;;;;6278743;22;20610;-70
2020/12/28 03:49:10;;;;;;;3.92;2.20;;;7.70;99.90;;;;;;6277618;22;20000;-70
2020/12/28 03:51:37;;;;;;;6.03;1.20;;;7.60;99.90;;;;;;6276721;22;19992;-70
2020/12/28 03:54:21;;;;;;;2.30;1.30;;;7.50;99.90;;;;;;6276635;22;19996;-70
2020/12/28 03:56:48;;;;;;;5.93;3.08;;;7.50;99.90;;;;;;6274918;22;20007;-70
2020/12/28 03:59:15;;;;;;;3.38;1.55;;;7.50;99.90;;;;;;6275055;22;20011;-70
2020/12/28 04:01:42;;;;;;;3.75;1.20;;;7.40;99.90;;;;;;6277417;22;20003;-70
2020/12/28 04:04:09;;;;;;;3.58;1.10;;;7.40;99.90;;;;;;6278534;22;20213;-69
2020/12/28 04:06:36;;;;;;;3.25;1.40;;;7.40;99.90;;;;;;6278378;22;20003;-71
2020/12/28 04:09:04;;;;;;;4.10;1.20;;;7.30;99.90;;;;;;6278321;22;20325;-69
2020/12/28 04:11:31;;;;;;;3.00;1.63;;;7.30;99.90;;;;;;6276398;22;19992;-70
2020/12/28 04:13:58;;;;;;;4.20;1.90;;;7.30;99.90;;;;;;6276655;22;19996;-69
2020/12/28 04:16:25;;;;;;;4.40;1.77;;;7.30;99.90;;;;;;6276226;22;19998;-71
2020/12/28 04:18:51;;;;;;;6.38;2.45;;;7.30;99.90;;;;;;6274630;22;20021;-71
2020/12/28 04:21:19;;;;;;;6.35;1.88;;;7.20;99.90;;;;;;6276132;22;19996;-71
2020/12/28 04:23:45;;;;;;;3.70;2.47;;;7.10;99.90;;;;;;6275342;22;20015;-71
2020/12/28 04:26:12;;;;;;;2.03;1.55;;;7.10;99.90;;;;;;6276784;22;19991;-71
2020/12/28 04:28:39;;;;;;;5.13;2.15;;;7.10;99.90;;;;;;6276535;22;19995;-70
2020/12/28 04:31:10;;;;;;;2.22;1.40;;;7.00;99.90;;;;;;6275925;22;20019;-71
2020/12/28 04:33:37;;;;;;;2.65;1.90;;;7.00;99.90;;;;;;6275799;22;20004;-71
2020/12/28 04:36:05;;;;;;;2.42;1.50;;;7.00;99.90;;;;;;6276736;22;20298;-70
2020/12/28 04:38:32;;;;;;;2.58;2.00;;;6.90;99.90;;;;;;6273862;22;20012;-71
2020/12/28 04:40:59;;;;;;;4.97;3.65;;;6.90;99.90;;;;;;6275982;22;19999;-71
2020/12/28 04:43:27;;;;;;;4.47;2.42;;;6.90;99.90;;;;;;6275689;22;20412;-70
2020/12/28 04:46:02;;;;;;;2.13;1.60;;;6.90;99.90;;;;;;6277523;22;19992;-70
2020/12/28 04:48:33;;;;;;;2.63;2.05;;;6.90;99.90;;;;;;6273899;22;20010;-71
2020/12/28 04:51:01;;;;;;;5.05;2.70;;;6.90;99.90;;;;;;6275662;22;20016;-70
2020/12/28 04:53:30;;;;;;;8.77;3.80;;;6.90;99.90;;;;;;6277990;22;19995;-71
2020/12/28 04:55:59;;;;;;;3.58;2.47;;;6.90;99.90;;;;;;6273738;22;20429;-71
2020/12/28 04:58:26;;;;;;;4.75;3.10;;;6.90;99.90;;;;;;6276420;22;20030;-70
2020/12/28 05:01:00;;;;;;;4.97;2.15;;;6.90;99.90;;;;;;6277373;22;20324;-70
2020/12/28 05:03:28;;;;;;;3.65;2.05;;;6.90;99.90;;;;;;6277243;22;20536;-71
2020/12/28 05:05:55;;;;;;;3.90;2.08;;;6.90;99.90;;;;;;6276131;22;20341;-69
2020/12/28 05:08:23;;;;;;;2.22;1.83;;;6.90;99.90;;;;;;6276205;22;19999;-70
2020/12/28 05:10:50;;;;;;;4.57;3.17;;;6.90;99.90;;;;;;6275520;22;19996;-69
2020/12/28 05:13:18;;;;;;;4.18;2.30;;;6.80;99.90;;;;;;6274078;22;19999;-69
2020/12/28 05:15:57;;;;;;;4.05;2.17;;;6.80;99.90;;;;;;6276943;22;19995;-71
2020/12/28 05:18:25;;;;;;;3.95;2.70;;;6.90;99.90;;;;;;6274001;22;20011;-69
2020/12/28 05:20:52;;;;;;;3.70;2.78;;;6.90;99.90;;;;;;6277584;22;19995;-70
2020/12/28 05:23:19;;;;;;;6.55;3.10;;;6.80;99.90;;;;;;6273286;22;20023;-69
2020/12/28 05:25:49;;;;;;;5.82;4.22;;;6.80;99.90;;;;;;6274118;22;20006;-69
2020/12/28 05:28:26;;;;;;;8.63;5.85;;;6.80;99.90;;;;;;6275575;22;20172;-71
2020/12/28 05:30:53;;;;;;;4.30;2.47;;;6.80;99.90;;;;;;6277065;22;20416;-70
2020/12/28 05:33:20;;;;;;;3.67;2.00;;;6.70;99.90;;;;;;6273688;22;20018;-70
2020/12/28 05:35:47;;;;;;;6.95;4.55;;;6.60;99.90;;;;;;6275992;22;20069;-70
2020/12/28 05:38:14;;;;;;;5.97;3.72;;;6.60;99.90;;;;;;6275371;22;20007;-69
2020/12/28 05:40:41;;;;;;;4.85;3.50;;;6.70;99.90;;;;;;6277326;22;20007;-70
2020/12/28 05:43:08;;;;;;;8.65;6.05;;;6.70;99.90;;;;;;6276451;22;19996;-70
2020/12/28 05:45:44;;;;;;;7.90;4.38;;;6.60;99.90;;;;;;6276244;22;20004;-69
2020/12/28 05:48:22;;;;;;;5.65;3.53;;;6.50;99.90;;;;;;6275246;22;19992;-69
2020/12/28 05:50:57;;;;;;;9.93;6.75;;;6.50;99.90;;;;;;6245733;22;20004;-70
2020/12/28 05:53:25;;;;;;;4.57;2.78;;;6.50;99.90;;;;;;6275187;22;19992;-70
2020/12/28 05:55:53;;;;;;;4.05;2.65;;;6.50;99.90;;;;;;6279334;22;20317;-70
2020/12/28 05:58:21;;;;;;;3.97;2.25;;;6.40;99.90;;;;;;6279437;22;20030;-70
2020/12/28 06:00:51;;;;;;;3.50;2.58;;;6.40;99.90;;;;;;6278046;22;19992;-70
2020/12/28 06:03:25;;;;;;;15.65;5.03;;;6.40;99.90;;;;;;6275969;22;20007;-70
2020/12/28 06:05:56;;;;;;;5.80;3.83;;;6.40;99.90;;;;;;6273148;22;20305;-70
2020/12/28 06:08:23;;;;;;;7.72;3.55;;;6.40;99.90;;;;;;6273875;22;20015;-68
2020/12/28 06:10:51;;;;;;;4.25;3.25;;;6.30;99.90;;;;;;6276660;22;20003;-68
2020/12/28 06:13:22;;;;;;;5.95;2.95;;;6.30;99.90;;;;;;6273587;22;19999;-69
2020/12/28 06:16:03;;;;;;;4.03;2.17;;;6.30;99.90;;;;;;6276161;22;20007;-69
2020/12/28 06:18:31;;;;;;;7.32;3.13;;;6.30;99.90;;;;;;6273801;22;20004;-68
2020/12/28 06:20:59;;;;;;;6.22;3.70;;;6.30;99.90;;;;;;6273342;22;20004;-68
2020/12/28 06:23:29;;;;;;;4.05;3.40;;;6.30;99.90;;;;;;6273347;22;20026;-69
2020/12/28 06:25:56;;;;;;;5.57;3.38;;;6.30;99.90;;;;;;6276487;22;20011;-70
2020/12/28 06:28:26;;;;;;;6.32;3.15;;;6.30;99.90;;;;;;6276593;22;20290;-72
2020/12/28 06:31:07;;;;;;;6.38;3.65;;;6.30;99.90;;;;;;6275261;22;20436;-70
2020/12/28 06:33:35;;;;;;;5.25;2.70;;;6.40;99.90;;;;;;6246044;22;20420;-70
2020/12/28 06:36:14;;;;;;;7.90;3.30;;;6.40;99.90;;;;;;6274405;22;19999;-70
2020/12/28 06:38:41;;;;;;;6.10;3.13;;;6.30;99.90;;;;;;6273229;22;20011;-70
2020/12/28 06:41:08;;;;;;;5.65;2.90;;;6.30;99.90;;;;;;6273950;22;20425;-70
2020/12/28 06:43:40;;;;;;;5.78;2.70;;;6.30;99.90;;;;;;6273093;22;20047;-71
2020/12/28 06:46:07;;;;;;;3.47;2.50;;;6.30;99.90;;;;;;6275639;22;20003;-70
2020/12/28 06:48:36;;;;;;;5.90;2.17;;;6.20;99.90;;;;;;6246462;22;20010;-70
2020/12/28 06:51:08;;;;;;;5.88;2.80;;;6.20;99.90;;;;;;6273389;22;19996;-70
2020/12/28 06:53:35;;;;;;;6.55;3.90;;;6.20;99.90;;;;;;6276995;22;19999;-70
2020/12/28 06:56:11;;;;;;;6.22;3.60;;;6.20;99.90;;;;;;6276579;22;19999;-70
2020/12/28 06:58:38;;;;;;;6.00;2.90;;;6.20;99.90;;;;;;6278308;22;20008;-71
2020/12/28 07:01:06;;;;;;;5.70;2.22;;;6.20;99.90;;;;;;6275113;22;20503;-70
2020/12/28 07:03:34;;;;;;;3.70;2.25;;;6.20;99.90;;;;;;6277656;22;20333;-70
2020/12/28 07:06:02;;;;;;;5.07;2.58;;;6.20;99.90;;;;;;6276684;22;19996;-69
2020/12/28 07:08:29;;;;;;;3.42;2.60;;;6.20;99.90;;;;;;6276916;22;19999;-69
2020/12/28 07:11:01;;;;;;;8.82;2.63;;;6.20;99.90;;;;;;6278689;22;20320;-69
2020/12/28 07:13:29;;;;;;;6.38;3.05;;;6.20;99.90;;;;;;6275431;22;19996;-69
2020/12/28 07:16:06;;;;;;;5.75;2.72;;;6.20;99.90;;;;;;6278493;22;19996;-69
2020/12/28 07:18:34;;;;;;;4.28;2.45;;;6.30;99.90;;;;;;6276857;22;20309;-69
2020/12/28 07:21:03;;;;;;;6.45;3.20;;;6.20;99.90;;;;;;6247357;22;20007;-69
2020/12/28 07:23:31;;;;;;;6.90;2.72;;;6.30;99.90;;;;;;6277878;22;20012;-70
2020/12/28 07:26:14;;;;;;;7.07;3.30;;;6.30;99.90;;;;;;6278573;22;19996;-72
2020/12/28 07:28:46;;;;;;;5.80;2.90;;;6.30;99.90;;;;;;6278186;22;20003;-70
2020/12/28 07:31:13;;;;;;;3.63;2.83;;;6.30;99.90;;;;;;6274196;22;20298;-70
2020/12/28 07:33:48;;;;;;;6.13;2.95;;;6.30;99.90;;;;;;6277927;22;19996;-69
2020/12/28 07:36:16;;;;;;;8.90;3.30;;;6.30;99.90;;;;;;6274778;22;20011;-69
2020/12/28 07:38:45;;;;;;;6.30;2.78;;;6.30;99.90;;;;;;6274542;22;20010;-69
2020/12/28 07:41:20;;;;;;;9.30;3.20;;;6.30;99.90;;;;;;6278066;22;20000;-69
2020/12/28 07:43:58;;;;;;;4.97;2.90;;;6.30;99.90;;;;;;6274209;22;20000;-70
2020/12/28 07:46:43;;;;;;;4.05;2.72;;;6.30;99.90;;;;;;6277878;22;19995;-69
2020/12/28 07:49:22;;;;;;;4.18;3.08;;;6.40;99.90;;;;;;6274949;22;19996;-70
2020/12/28 07:52:26;;;;;;;3.92;2.88;;;6.40;99.90;;;;;;6277718;22;19996;-71
2020/12/28 07:55:18;;;;;;;4.45;2.50;;;6.40;99.90;;;;;;6274656;22;20003;-69
2020/12/28 07:58:09;;;;;;;5.30;3.33;;;6.40;99.90;;;;;;6248594;22;20321;-69
2020/12/28 08:00:43;;;;;;;4.55;3.03;;;6.40;99.90;;;;;;6274707;22;20014;-72
2020/12/28 08:03:16;;;;;;;7.20;3.20;;;6.40;99.90;;;;;;6276360;22;19996;-70
2020/12/28 08:05:45;;;;;;;4.50;2.70;;;6.40;99.90;;;;;;6275391;22;20003;-70
2020/12/28 08:08:25;;;;;;;6.50;2.90;;;6.40;99.90;;;;;;6277067;22;20000;-69
2020/12/28 08:10:56;;;;;;;5.72;3.42;;;6.50;99.90;;;;;;6274274;22;20011;-69
2020/12/28 08:13:33;;;;;;;3.60;2.47;;;6.50;99.90;;;;;;6274534;22;20317;-69
2020/12/28 08:16:12;;;;;;;6.03;3.22;;;6.50;99.90;;;;;;6274194;22;20108;-69
2020/12/28 08:18:55;;;;;;;6.97;3.10;;;6.50;99.90;;;;;;6274302;22;20007;-70
2020/12/28 08:21:23;;;;;;;7.55;3.13;;;6.50;99.90;;;;;;6275100;22;20007;-68
2020/12/28 08:23:51;;;;;;;5.07;2.85;;;6.50;99.90;;;;;;6276841;22;20015;-69
2020/12/28 08:26:21;;;;;;;5.15;3.00;;;6.50;99.90;;;;;;6276916;22;19992;-69
2020/12/28 08:28:53;;;;;;;5.47;2.67;;;6.50;99.90;;;;;;6274642;22;20011;-69
2020/12/28 08:31:34;;;;;;;7.15;3.03;;;6.60;99.90;;;;;;6274892;22;20504;-69
2020/12/28 08:34:02;;;;;;;8.40;3.50;;;6.60;99.90;;;;;;6278763;22;20054;-69
2020/12/28 08:36:31;;;;;;;6.72;3.25;;;6.60;99.90;;;;;;6277051;22;19999;-69
2020/12/28 08:38:58;;;;;;;3.42;2.40;;;6.60;99.90;;;;;;6274283;22;20011;-69
2020/12/28 08:41:25;;;;;;;5.70;3.20;;;6.70;99.90;;;;;;6276337;22;19992;-69
2020/12/28 08:43:51;;;;;;;4.45;2.90;;;6.70;99.90;;;;;;6274095;22;20015;-69
2020/12/28 08:46:24;;;;;;;10.57;3.53;;;6.70;99.90;;;;;;6276173;22;19992;-69
2020/12/28 08:48:51;;;;;;;5.32;3.03;;;6.70;99.90;;;;;;6274060;22;20611;-69
2020/12/28 08:51:19;;;;;;;4.28;2.85;;;6.70;99.90;;;;;;6274294;22;20004;-69
2020/12/28 08:53:51;;;;;;;8.15;3.45;;;6.70;99.90;;;;;;6276176;22;20023;-69
2020/12/28 08:56:18;;;;;;;6.07;2.78;;;6.70;99.90;;;;;;6278765;22;19996;-68
2020/12/28 08:58:45;;;;;;;6.32;3.55;;;6.80;99.90;;;;;;6274052;22;20313;-69
2020/12/28 09:01:13;;;;;;;4.82;2.67;;;6.80;99.90;;;;;;6277692;22;20023;-69
2020/12/28 09:03:40;;;;;;;10.77;3.88;;;6.80;99.90;;;;;;6274582;22;20000;-69
2020/12/28 09:06:07;;;;;;;5.57;3.15;;;6.80;99.90;;;;;;6274148;22;20000;-70
2020/12/28 09:08:34;;;;;;;6.32;3.05;;;6.90;99.90;;;;;;6273528;22;20417;-69
2020/12/28 09:11:01;;;;;;;6.53;3.22;;;6.90;99.90;;;;;;6275847;22;20328;-69
2020/12/28 09:13:28;;;;;;;4.03;2.83;;;6.90;99.90;;;;;;6275615;22;20015;-70
2020/12/28 09:15:54;;;;;;;7.90;3.08;;;6.90;99.90;;;;;;6279670;22;20405;-70
2020/12/28 09:18:21;;;;;;;7.00;3.00;;;6.80;99.90;;;;;;6278094;22;19996;-69
2020/12/28 09:20:48;;;;;;;5.35;2.70;;;6.80;99.90;;;;;;6275940;22;20015;-69
2020/12/28 09:23:15;;;;;;;4.72;2.88;;;6.80;99.90;;;;;;6275287;22;20332;-69
2020/12/28 09:25:42;;;;;;;5.72;3.10;;;6.80;99.90;;;;;;6273863;22;20336;-69
2020/12/28 09:28:09;;;;;;;5.45;2.90;;;6.80;99.90;;;;;;6277527;22;20003;-69
2020/12/28 09:30:35;;;;;;;4.75;2.63;;;6.80;99.90;;;;;;6276557;22;19996;-69
2020/12/28 09:33:02;;;;;;;4.40;2.80;;;6.80;99.90;;;;;;6276688;22;20003;-69
2020/12/28 09:35:29;;;;;;;5.40;2.47;;;6.90;99.90;;;;;;6277660;22;19999;-70
2020/12/28 09:37:56;;;;;;;5.50;2.78;;;6.90;99.90;;;;;;6276474;22;19992;-70
2020/12/28 09:40:23;;;;;;;3.58;2.40;;;6.90;99.90;;;;;;6274183;22;20042;-69
2020/12/28 09:42:50;;;;;;;7.85;2.55;;;6.90;99.90;;;;;;6273597;22;20444;-70
2020/12/28 09:45:36;;;;;;;4.40;2.38;;;6.90;99.90;;;;;;6273599;22;19999;-69
2020/12/28 09:48:05;;;;;;;3.35;2.28;;;6.90;99.90;;;;;;6273811;22;20003;-69
2020/12/28 09:50:31;;;;;;;7.47;2.85;;;6.90;99.90;;;;;;6247035;22;19999;-70
2020/12/28 09:52:59;;;;;;;5.60;2.13;;;6.90;99.90;;;;;;6274262;22;20015;-69
2020/12/28 09:55:26;;;;;;;6.28;2.40;;;6.90;99.90;;;;;;6275581;22;20352;-70
2020/12/28 09:57:52;;;;;;;4.82;2.45;;;6.90;99.90;;;;;;6276522;22;20007;-70
2020/12/28 10:00:19;;;;;;;3.70;2.08;;;6.90;99.90;;;;;;6274863;22;20004;-69
2020/12/28 10:02:47;;;;;;;7.63;2.30;;;6.90;99.90;;;;;;6276783;22;19999;-70
2020/12/28 10:05:14;;;;;;;4.85;2.50;;;6.90;99.90;;;;;;6276581;22;20007;-69
2020/12/28 10:07:41;;;;;;;7.43;2.47;;;6.90;99.90;;;;;;6273865;22;20324;-69
2020/12/28 10:10:09;;;;;;;4.50;2.10;;;6.90;99.90;;;;;;6273500;22;20000;-69
2020/12/28 10:12:38;;;;;;;7.93;2.85;;;6.90;99.90;;;;;;6275680;22;19999;-70
2020/12/28 10:15:06;;;;;;;5.38;2.60;;;6.90;99.90;;;;;;6274030;22;20317;-70
2020/12/28 10:17:33;;;;;;;2.90;1.85;;;6.90;99.90;;;;;;6278710;22;20424;-69
2020/12/28 10:20:00;;;;;;;2.65;1.80;;;6.90;99.90;;;;;;6276175;22;20015;-71
2020/12/28 10:22:27;;;;;;;3.60;1.80;;;6.90;99.90;;;;;;6276181;22;20332;-70
2020/12/28 10:24:55;;;;;;;7.85;1.80;;;7.00;99.90;;;;;;6273852;22;20008;-69
2020/12/28 10:27:23;;;;;;;2.13;1.60;;;7.00;99.90;;;;;;6275150;22;20003;-71
2020/12/28 10:29:50;;;;;;;4.15;1.77;;;6.90;99.90;;;;;;6277013;22;20057;-69
2020/12/28 10:32:17;;;;;;;3.47;1.50;;;7.00;99.90;;;;;;6272969;22;20010;-69
2020/12/28 10:34:44;;;;;;;2.72;1.30;;;7.00;99.90;;;;;;6273038;22;20452;-69
2020/12/28 10:37:11;;;;;;;2.83;1.80;;;7.00;99.90;;;;;;6274613;22;19992;-69
2020/12/28 10:39:38;;;;;;;5.03;1.73;;;6.90;99.90;;;;;;6274925;22;20424;-69
2020/12/28 10:42:05;;;;;;;4.03;1.35;;;6.90;99.90;;;;;;6276679;22;20313;-69
2020/12/28 10:44:32;;;;;;;2.95;1.30;;;6.80;99.90;;;;;;6276327;22;19996;-69
2020/12/28 10:46:58;;;;;;;2.20;1.38;;;6.70;99.90;;;;;;6275783;22;20381;-69
2020/12/28 10:49:27;;;;;;;4.00;1.42;;;6.60;99.90;;;;;;6273441;22;20042;-70
2020/12/28 10:51:54;;;;;;;3.67;1.70;;;6.60;99.90;;;;;;6273096;22;20004;-69
2020/12/28 10:54:21;;;;;;;3.58;1.80;;;6.60;99.90;;;;;;6276534;22;19996;-69
2020/12/28 10:56:48;;;;;;;2.50;1.65;;;6.50;99.90;;;;;;6273391;22;20004;-69
2020/12/28 10:59:14;;;;;;;3.63;1.60;;;6.40;99.90;;;;;;6273217;22;20018;-69
2020/12/28 11:01:41;;;;;;;2.97;1.35;;;6.40;99.90;;;;;;6274174;22;20011;-68
2020/12/28 11:04:08;;;;;;;2.55;1.52;;;6.50;99.90;;;;;;6273088;22;20004;-68
2020/12/28 11:06:41;;;;;;;3.30;1.52;;;6.50;99.90;;;;;;6276255;22;19992;-69
2020/12/28 11:09:08;;;;;;;2.95;1.55;;;6.50;99.90;;;;;;6275534;22;20002;-70
2020/12/28 11:11:35;;;;;;;3.22;1.30;;;6.40;99.90;;;;;;6275376;22;19999;-70
2020/12/28 11:14:02;;;;;;;5.18;1.55;;;6.40;99.90;;;;;;6274957;22;20000;-70
2020/12/28 11:16:29;;;;;;;4.07;1.38;;;6.50;99.90;;;;;;6275387;22;19996;-70
2020/12/28 11:18:56;;;;;;;2.75;1.40;;;6.50;99.90;;;;;;6276012;22;19996;-70
2020/12/28 11:21:23;;;;;;;3.08;1.77;;;6.50;99.90;;;;;;6276649;22;20004;-69
2020/12/28 11:23:59;;;;;;;3.92;1.52;;;6.60;99.90;;;;;;6272905;22;20016;-69
2020/12/28 11:26:31;;;;;;;3.55;1.55;;;6.60;99.90;;;;;;6273056;22;20447;-68
2020/12/28 11:28:58;;;;;;;3.75;1.23;;;6.60;99.90;;;;;;6276457;22;19996;-68
2020/12/28 11:31:26;;;;;;;3.47;1.45;;;6.60;99.90;;;;;;6273389;22;20106;-68
2020/12/28 11:33:53;;;;;;;3.22;1.58;;;6.50;99.90;;;;;;6275374;22;20313;-68
2020/12/28 11:36:20;;;;;;;2.78;1.58;;;6.50;99.90;;;;;;6273925;22;20007;-68
2020/12/28 11:38:47;;;;;;;3.50;1.60;;;6.30;99.90;;;;;;6275251;22;20047;-68
2020/12/28 11:41:18;;;;;;;5.70;1.73;;;6.20;99.90;;;;;;6277407;22;20012;-70
2020/12/28 11:43:45;;;;;;;2.88;1.70;;;6.10;99.90;;;;;;6276021;22;20010;-68
2020/12/28 11:46:13;;;;;;;3.08;1.50;;;6.00;99.90;;;;;;6275593;22;20030;-70
2020/12/28 11:48:40;;;;;;;2.67;1.70;;;5.90;99.90;;;;;;6278438;22;19991;-70
2020/12/28 11:51:09;;;;;;;7.50;1.92;;;6.00;99.90;;;;;;6276083;22;20004;-68
2020/12/28 11:53:36;;;;;;;5.75;1.85;;;6.00;99.90;;;;;;6278385;22;19991;-68
2020/12/28 11:56:05;;;;;;;4.38;1.92;;;6.00;99.90;;;;;;6277137;22;20420;-67
2020/12/28 11:58:36;;;;;;;3.70;1.85;;;5.90;99.90;;;;;;6249136;22;20003;-67
2020/12/28 12:01:05;;;;;;;5.72;2.20;;;5.90;99.90;;;;;;6276468;22;20340;-67
2020/12/28 12:03:32;;;;;;;4.57;1.90;;;5.90;99.90;;;;;;6275149;22;20007;-67
2020/12/28 12:06:00;;;;;;;3.22;1.90;;;5.90;99.90;;;;;;6277950;22;20000;-68
2020/12/28 12:08:27;;;;;;;3.95;1.92;;;5.90;99.90;;;;;;6248147;22;19996;-68
2020/12/28 12:10:54;;;;;;;5.80;2.22;;;5.90;99.90;;;;;;6274753;22;19996;-68
2020/12/28 12:13:21;;;;;;;2.55;2.00;;;5.90;99.90;;;;;;6276446;22;20004;-69
2020/12/28 12:15:50;;;;;;;4.47;2.10;;;5.90;99.90;;;;;;6275975;22;20065;-69
2020/12/28 12:18:17;;;;;;;3.15;1.90;;;5.90;99.90;;;;;;6276314;22;20007;-68
2020/12/28 12:20:44;;;;;;;3.55;1.85;;;5.90;99.90;;;;;;6277545;22;20329;-69
2020/12/28 12:23:11;;;;;;;4.40;1.67;;;5.90;99.90;;;;;;6276468;22;20011;-69
2020/12/28 12:25:38;;;;;;;3.70;1.95;;;5.90;99.90;;;;;;6273665;22;20011;-69
2020/12/28 12:28:05;;;;;;;6.50;3.15;;;5.80;99.90;;;;;;6277855;22;19999;-69
2020/12/28 12:30:32;;;;;;;4.93;1.67;;;5.80;99.90;;;;;;6249208;22;20010;-68
2020/12/28 12:33:00;;;;;;;4.22;1.73;;;5.80;99.90;;;;;;6277124;22;20014;-69
2020/12/28 12:35:27;;;;;;;3.70;2.13;;;5.80;99.90;;;;;;6276310;22;20298;-69
2020/12/28 12:37:54;;;;;;;4.88;1.80;;;5.80;99.90;;;;;;6249098;22;19999;-69
2020/12/28 12:40:20;;;;;;;3.00;1.85;;;5.70;99.90;;;;;;6277857;22;20015;-68
2020/12/28 12:42:47;;;;;;;2.85;1.42;;;5.70;99.90;;;;;;6277732;22;20003;-69
2020/12/28 12:45:14;;;;;;;3.90;1.40;;;5.70;99.90;;;;;;6274309;22;20008;-69
2020/12/28 12:47:42;;;;;;;2.92;1.67;;;5.70;99.90;;;;;;6276360;22;19991;-69
2020/12/28 12:50:10;;;;;;;3.78;1.45;;;5.60;99.90;;;;;;6274705;22;20000;-69
2020/12/28 12:52:37;;;;;;;3.78;1.50;;;5.70;99.90;;;;;;6277630;22;20011;-68
2020/12/28 12:55:04;;;;;;;2.45;1.55;;;5.70;99.90;;;;;;6276885;22;20003;-68
2020/12/28 12:57:31;;;;;;;4.57;2.05;;;5.60;99.90;;;;;;6274973;22;20006;-68
2020/12/28 13:00:04;;;;;;;3.10;1.38;;;5.60;99.90;;;;;;6279174;22;20011;-68
2020/12/28 13:02:33;;;;;;;6.43;1.80;;;5.70;99.90;;;;;;6276187;22;20007;-68
2020/12/28 13:05:05;;;;;;;4.43;1.60;;;5.70;99.90;;;;;;6273969;22;20006;-69